sensor_id;sensor_type;location;lat;lon;timestamp;P1;durP1;ratioP1;P2;durP2;ratioP2
23988;SDS011;74667;52.136;5.592;2023-12-07T14:57:49;3.63;;;2.58;;
23988;SDS011;74667;52.136;5.592;2023-12-07T15:00:16;2.75;;;2.50;;
23988;SDS011;74667;52.136;5.592;2023-12-07T15:02:43;3.05;;;2.67;;
23988;SDS011;74667;52.136;5.592;2023-12-07T15:05:08;3.40;;;3.10;;
23988;SDS011;74667;52.136;5.592;2023-12-07T15:07:34;3.22;;;2.92;;
23988;SDS011;74667;52.136;5.592;2023-12-07T15:10:00;3.15;;;2.85;;
23988;SDS011;74667;52.136;5.592;2023-12-07T15:12:25;4.38;;;3.15;;
23988;SDS011;74667;52.136;5.592;2023-12-07T15:14:53;3.83;;;3.20;;
23988;SDS011;74667;52.136;5.592;2023-12-07T15:17:19;4.00;;;3.15;;
23988;SDS011;74667;52.136;5.592;2023-12-07T16:01:02;15.98;;;5.90;;
23988;SDS011;74667;52.136;5.592;2023-12-07T16:03:28;7.28;;;5.25;;
23988;SDS011;74667;52.136;5.592;2023-12-07T16:13:01;8.80;;;5.95;;
23988;SDS011;74667;52.136;5.592;2023-12-07T16:15:27;8.40;;;5.38;;
23988;SDS011;74667;52.136;5.592;2023-12-07T16:19:41;5.28;;;3.17;;
23988;SDS011;74667;52.136;5.592;2023-12-07T16:22:06;3.53;;;2.80;;
23988;SDS011;74667;52.136;5.592;2023-12-07T16:30:54;25.70;;;16.73;;
23988;SDS011;74667;52.136;5.592;2023-12-07T16:33:20;31.23;;;19.92;;
23988;SDS011;74667;52.136;5.592;2023-12-07T16:35:45;30.58;;;20.70;;
23988;SDS011;74667;52.136;5.592;2023-12-07T16:38:10;33.63;;;21.87;;
23988;SDS011;74667;52.136;5.592;2023-12-07T16:40:35;31.73;;;21.17;;
23988;SDS011;74667;52.136;5.592;2023-12-07T16:43:00;34.53;;;21.93;;
23988;SDS011;74667;52.136;5.592;2023-12-07T16:45:25;38.93;;;24.33;;
23988;SDS011;74667;52.136;5.592;2023-12-07T16:47:51;38.67;;;23.08;;
23988;SDS011;74667;52.136;5.592;2023-12-07T16:50:18;42.13;;;23.52;;
23988;SDS011;74667;52.136;5.592;2023-12-07T16:52:43;36.85;;;22.45;;
23988;SDS011;74667;52.136;5.592;2023-12-07T16:55:08;46.13;;;23.73;;
23988;SDS011;74667;52.136;5.592;2023-12-07T16:57:34;44.13;;;24.30;;
23988;SDS011;74667;52.136;5.592;2023-12-07T16:59:59;43.13;;;24.80;;
23988;SDS011;74667;52.136;5.592;2023-12-07T17:02:24;45.85;;;24.92;;
23988;SDS011;74667;52.136;5.592;2023-12-07T17:04:51;41.78;;;23.83;;
23988;SDS011;74667;52.136;5.592;2023-12-07T17:07:16;47.88;;;25.35;;
23988;SDS011;74667;52.136;5.592;2023-12-07T17:09:41;47.58;;;25.85;;
23988;SDS011;74667;52.136;5.592;2023-12-07T17:12:07;45.10;;;25.27;;
23988;SDS011;74667;52.136;5.592;2023-12-07T17:14:32;51.40;;;26.17;;
23988;SDS011;74667;52.136;5.592;2023-12-07T17:16:57;46.28;;;25.48;;
23988;SDS011;74667;52.136;5.592;2023-12-07T17:19:22;52.42;;;27.10;;
23988;SDS011;74667;52.136;5.592;2023-12-07T17:21:48;43.67;;;24.58;;
23988;SDS011;74667;52.136;5.592;2023-12-07T17:24:14;45.83;;;25.05;;
23988;SDS011;74667;52.136;5.592;2023-12-07T17:26:39;49.63;;;26.30;;
23988;SDS011;74667;52.136;5.592;2023-12-07T17:29:07;53.03;;;27.27;;
23988;SDS011;74667;52.136;5.592;2023-12-07T17:31:32;47.53;;;23.73;;
23988;SDS011;74667;52.136;5.592;2023-12-07T17:33:58;45.63;;;25.02;;
23988;SDS011;74667;52.136;5.592;2023-12-07T17:36:23;45.85;;;25.92;;
23988;SDS011;74667;52.136;5.592;2023-12-07T17:38:48;46.88;;;25.23;;
23988;SDS011;74667;52.136;5.592;2023-12-07T17:41:15;46.58;;;26.63;;
23988;SDS011;74667;52.136;5.592;2023-12-07T17:43:40;49.00;;;26.57;;
23988;SDS011;74667;52.136;5.592;2023-12-07T17:46:05;50.80;;;27.17;;
23988;SDS011;74667;52.136;5.592;2023-12-07T17:48:31;48.08;;;25.67;;
23988;SDS011;74667;52.136;5.592;2023-12-07T17:50:56;47.95;;;26.55;;
23988;SDS011;74667;52.136;5.592;2023-12-07T17:53:21;47.10;;;24.85;;
23988;SDS011;74667;52.136;5.592;2023-12-07T17:55:46;54.13;;;25.85;;
23988;SDS011;74667;52.136;5.592;2023-12-07T17:58:12;50.10;;;26.45;;
23988;SDS011;74667;52.136;5.592;2023-12-07T18:14:16;36.47;;;21.90;;
23988;SDS011;74667;52.136;5.592;2023-12-07T18:16:41;40.88;;;22.67;;
23988;SDS011;74667;52.136;5.592;2023-12-07T18:19:06;39.10;;;21.97;;
23988;SDS011;74667;52.136;5.592;2023-12-07T18:21:31;34.75;;;18.58;;
23988;SDS011;74667;52.136;5.592;2023-12-07T18:23:56;33.03;;;17.90;;
23988;SDS011;74667;52.136;5.592;2023-12-07T18:26:22;31.53;;;17.83;;
23988;SDS011;74667;52.136;5.592;2023-12-07T18:28:47;35.78;;;18.60;;
23988;SDS011;74667;52.136;5.592;2023-12-07T18:31:12;32.70;;;17.45;;
23988;SDS011;74667;52.136;5.592;2023-12-07T18:33:38;33.70;;;17.17;;
23988;SDS011;74667;52.136;5.592;2023-12-07T18:36:03;31.13;;;17.77;;
23988;SDS011;74667;52.136;5.592;2023-12-07T18:38:28;38.20;;;18.10;;
23988;SDS011;74667;52.136;5.592;2023-12-07T18:40:54;27.95;;;16.85;;
23988;SDS011;74667;52.136;5.592;2023-12-07T18:43:19;32.13;;;17.95;;
23988;SDS011;74667;52.136;5.592;2023-12-07T18:45:44;31.43;;;16.87;;
23988;SDS011;74667;52.136;5.592;2023-12-07T18:48:09;34.03;;;17.45;;
23988;SDS011;74667;52.136;5.592;2023-12-07T18:50:34;30.15;;;16.30;;
23988;SDS011;74667;52.136;5.592;2023-12-07T18:53:00;28.80;;;17.13;;
23988;SDS011;74667;52.136;5.592;2023-12-07T18:55:25;29.58;;;16.00;;
23988;SDS011;74667;52.136;5.592;2023-12-07T18:57:50;30.23;;;16.23;;
23988;SDS011;74667;52.136;5.592;2023-12-07T19:00:17;29.50;;;17.10;;
23988;SDS011;74667;52.136;5.592;2023-12-07T19:02:42;33.35;;;17.00;;
23988;SDS011;74667;52.136;5.592;2023-12-07T19:05:08;32.80;;;17.80;;
23988;SDS011;74667;52.136;5.592;2023-12-07T19:07:33;32.97;;;18.13;;
23988;SDS011;74667;52.136;5.592;2023-12-07T19:09:58;27.48;;;14.93;;
23988;SDS011;74667;52.136;5.592;2023-12-07T19:12:24;22.20;;;15.23;;
23988;SDS011;74667;52.136;5.592;2023-12-07T19:14:49;27.50;;;15.48;;
23988;SDS011;74667;52.136;5.592;2023-12-07T19:17:14;23.70;;;14.57;;
23988;SDS011;74667;52.136;5.592;2023-12-07T19:19:39;29.60;;;15.65;;
23988;SDS011;74667;52.136;5.592;2023-12-07T19:22:04;25.80;;;14.53;;
23988;SDS011;74667;52.136;5.592;2023-12-07T19:24:29;21.02;;;13.70;;
23988;SDS011;74667;52.136;5.592;2023-12-07T19:26:56;24.75;;;14.30;;
23988;SDS011;74667;52.136;5.592;2023-12-07T19:29:21;27.35;;;14.68;;
23988;SDS011;74667;52.136;5.592;2023-12-07T19:31:46;22.17;;;13.87;;
23988;SDS011;74667;52.136;5.592;2023-12-07T19:34:11;22.27;;;14.73;;
23988;SDS011;74667;52.136;5.592;2023-12-07T19:36:40;25.08;;;14.70;;
23988;SDS011;74667;52.136;5.592;2023-12-07T19:39:08;28.42;;;14.43;;
23988;SDS011;74667;52.136;5.592;2023-12-07T19:41:33;22.98;;;13.65;;
23988;SDS011;74667;52.136;5.592;2023-12-07T19:43:59;24.27;;;13.73;;
23988;SDS011;74667;52.136;5.592;2023-12-07T19:46:24;25.80;;;13.97;;
23988;SDS011;74667;52.136;5.592;2023-12-07T19:48:49;22.70;;;14.03;;
23988;SDS011;74667;52.136;5.592;2023-12-07T19:51:17;24.33;;;13.73;;
23988;SDS011;74667;52.136;5.592;2023-12-07T19:53:43;19.88;;;12.88;;
23988;SDS011;74667;52.136;5.592;2023-12-07T19:56:08;18.60;;;12.77;;
23988;SDS011;74667;52.136;5.592;2023-12-07T19:58:34;24.63;;;13.02;;
23988;SDS011;74667;52.136;5.592;2023-12-07T20:01:01;23.35;;;13.50;;
23988;SDS011;74667;52.136;5.592;2023-12-07T20:03:26;27.87;;;14.30;;
23988;SDS011;74667;52.136;5.592;2023-12-07T20:05:51;25.65;;;14.93;;
23988;SDS011;74667;52.136;5.592;2023-12-07T20:08:16;26.30;;;14.13;;
23988;SDS011;74667;52.136;5.592;2023-12-07T20:10:41;23.90;;;13.43;;
23988;SDS011;74667;52.136;5.592;2023-12-07T20:13:06;22.70;;;12.60;;
23988;SDS011;74667;52.136;5.592;2023-12-07T20:15:32;26.70;;;14.13;;
23988;SDS011;74667;52.136;5.592;2023-12-07T20:17:57;22.33;;;12.60;;
23988;SDS011;74667;52.136;5.592;2023-12-07T20:20:22;22.37;;;13.07;;
23988;SDS011;74667;52.136;5.592;2023-12-07T20:22:47;21.80;;;12.50;;
23988;SDS011;74667;52.136;5.592;2023-12-07T20:25:12;19.42;;;11.40;;
23988;SDS011;74667;52.136;5.592;2023-12-07T20:27:37;19.98;;;11.93;;
23988;SDS011;74667;52.136;5.592;2023-12-07T20:30:03;20.07;;;12.27;;
23988;SDS011;74667;52.136;5.592;2023-12-07T20:32:28;26.85;;;12.88;;
23988;SDS011;74667;52.136;5.592;2023-12-07T20:34:53;20.70;;;11.88;;
23988;SDS011;74667;52.136;5.592;2023-12-07T20:37:18;19.23;;;11.68;;
23988;SDS011;74667;52.136;5.592;2023-12-07T20:39:44;22.80;;;12.25;;
23988;SDS011;74667;52.136;5.592;2023-12-07T20:42:09;19.20;;;11.20;;
23988;SDS011;74667;52.136;5.592;2023-12-07T20:44:35;25.08;;;13.38;;
23988;SDS011;74667;52.136;5.592;2023-12-07T20:47:00;26.53;;;13.13;;
23988;SDS011;74667;52.136;5.592;2023-12-07T20:49:26;23.08;;;13.18;;
23988;SDS011;74667;52.136;5.592;2023-12-07T20:51:51;19.42;;;12.30;;
23988;SDS011;74667;52.136;5.592;2023-12-07T20:54:16;19.83;;;11.83;;
23988;SDS011;74667;52.136;5.592;2023-12-07T20:56:42;19.85;;;12.63;;
23988;SDS011;74667;52.136;5.592;2023-12-07T20:59:08;19.55;;;12.07;;
23988;SDS011;74667;52.136;5.592;2023-12-07T21:01:33;21.00;;;12.27;;
23988;SDS011;74667;52.136;5.592;2023-12-07T21:03:59;23.63;;;12.85;;
23988;SDS011;74667;52.136;5.592;2023-12-07T21:06:24;27.40;;;13.70;;
23988;SDS011;74667;52.136;5.592;2023-12-07T21:08:49;27.17;;;14.17;;
23988;SDS011;74667;52.136;5.592;2023-12-07T21:11:14;28.13;;;14.47;;
23988;SDS011;74667;52.136;5.592;2023-12-07T21:13:39;24.00;;;13.23;;
23988;SDS011;74667;52.136;5.592;2023-12-07T21:16:05;24.03;;;13.90;;
23988;SDS011;74667;52.136;5.592;2023-12-07T21:18:30;25.77;;;13.20;;
23988;SDS011;74667;52.136;5.592;2023-12-07T21:20:55;25.93;;;13.17;;
23988;SDS011;74667;52.136;5.592;2023-12-07T21:23:20;21.73;;;13.17;;
23988;SDS011;74667;52.136;5.592;2023-12-07T21:25:46;23.20;;;12.82;;
23988;SDS011;74667;52.136;5.592;2023-12-07T21:28:11;21.13;;;12.35;;
23988;SDS011;74667;52.136;5.592;2023-12-07T21:30:36;19.77;;;12.43;;
23988;SDS011;74667;52.136;5.592;2023-12-07T21:33:04;21.42;;;11.55;;
23988;SDS011;74667;52.136;5.592;2023-12-07T21:35:29;22.63;;;12.07;;
23988;SDS011;74667;52.136;5.592;2023-12-07T21:37:54;21.40;;;11.50;;
23988;SDS011;74667;52.136;5.592;2023-12-07T21:40:20;20.20;;;12.40;;
23988;SDS011;74667;52.136;5.592;2023-12-07T21:42:45;21.30;;;11.48;;
23988;SDS011;74667;52.136;5.592;2023-12-07T21:45:10;20.42;;;11.60;;
23988;SDS011;74667;52.136;5.592;2023-12-07T21:47:35;17.42;;;11.38;;
23988;SDS011;74667;52.136;5.592;2023-12-07T21:50:01;19.70;;;11.57;;
23988;SDS011;74667;52.136;5.592;2023-12-07T21:52:28;20.08;;;11.73;;
23988;SDS011;74667;52.136;5.592;2023-12-07T21:54:53;21.83;;;11.73;;
23988;SDS011;74667;52.136;5.592;2023-12-07T21:57:18;18.67;;;11.93;;
23988;SDS011;74667;52.136;5.592;2023-12-07T21:59:45;19.27;;;11.70;;
23988;SDS011;74667;52.136;5.592;2023-12-07T22:02:10;19.80;;;11.48;;
23988;SDS011;74667;52.136;5.592;2023-12-07T22:04:35;19.15;;;11.75;;
23988;SDS011;74667;52.136;5.592;2023-12-07T22:07:01;19.88;;;12.27;;
23988;SDS011;74667;52.136;5.592;2023-12-07T22:09:26;21.30;;;11.93;;
23988;SDS011;74667;52.136;5.592;2023-12-07T22:11:51;21.27;;;12.75;;
23988;SDS011;74667;52.136;5.592;2023-12-07T22:14:16;21.97;;;12.90;;
23988;SDS011;74667;52.136;5.592;2023-12-07T22:16:42;20.88;;;12.20;;
23988;SDS011;74667;52.136;5.592;2023-12-07T22:19:07;20.50;;;12.40;;
23988;SDS011;74667;52.136;5.592;2023-12-07T22:21:32;25.73;;;12.83;;
23988;SDS011;74667;52.136;5.592;2023-12-07T22:23:58;22.55;;;11.77;;
23988;SDS011;74667;52.136;5.592;2023-12-07T22:26:23;20.40;;;11.43;;
23988;SDS011;74667;52.136;5.592;2023-12-07T22:28:48;23.80;;;12.90;;
23988;SDS011;74667;52.136;5.592;2023-12-07T22:31:13;20.40;;;12.37;;
23988;SDS011;74667;52.136;5.592;2023-12-07T22:33:38;21.97;;;13.17;;
23988;SDS011;74667;52.136;5.592;2023-12-07T22:36:04;22.98;;;12.65;;
23988;SDS011;74667;52.136;5.592;2023-12-07T22:38:29;24.38;;;13.52;;
23988;SDS011;74667;52.136;5.592;2023-12-07T22:40:54;23.88;;;13.45;;
23988;SDS011;74667;52.136;5.592;2023-12-07T22:43:19;23.10;;;14.07;;
23988;SDS011;74667;52.136;5.592;2023-12-07T22:45:44;24.33;;;13.38;;
23988;SDS011;74667;52.136;5.592;2023-12-07T22:48:10;22.38;;;13.30;;
23988;SDS011;74667;52.136;5.592;2023-12-07T22:50:35;26.00;;;14.43;;
23988;SDS011;74667;52.136;5.592;2023-12-07T22:53:00;25.40;;;14.00;;
23988;SDS011;74667;52.136;5.592;2023-12-07T22:55:25;23.77;;;14.60;;
23988;SDS011;74667;52.136;5.592;2023-12-07T22:57:50;27.15;;;15.57;;
23988;SDS011;74667;52.136;5.592;2023-12-07T23:00:16;25.10;;;13.15;;
23988;SDS011;74667;52.136;5.592;2023-12-07T23:02:47;26.33;;;14.82;;
23988;SDS011;74667;52.136;5.592;2023-12-07T23:05:13;25.65;;;15.43;;
23988;SDS011;74667;52.136;5.592;2023-12-07T23:07:38;26.85;;;14.63;;
23988;SDS011;74667;52.136;5.592;2023-12-07T23:10:03;27.10;;;15.52;;
23988;SDS011;74667;52.136;5.592;2023-12-07T23:12:28;23.52;;;14.27;;
23988;SDS011;74667;52.136;5.592;2023-12-07T23:14:54;25.83;;;15.87;;
23988;SDS011;74667;52.136;5.592;2023-12-07T23:17:19;25.87;;;15.30;;
23988;SDS011;74667;52.136;5.592;2023-12-07T23:19:44;25.88;;;15.75;;
23988;SDS011;74667;52.136;5.592;2023-12-07T23:22:09;30.57;;;16.80;;
23988;SDS011;74667;52.136;5.592;2023-12-07T23:24:34;25.63;;;15.43;;
23988;SDS011;74667;52.136;5.592;2023-12-07T23:26:59;25.40;;;15.43;;
23988;SDS011;74667;52.136;5.592;2023-12-07T23:29:25;28.30;;;15.67;;
23988;SDS011;74667;52.136;5.592;2023-12-07T23:31:50;27.87;;;16.27;;
23988;SDS011;74667;52.136;5.592;2023-12-07T23:34:15;33.03;;;16.75;;
23988;SDS011;74667;52.136;5.592;2023-12-07T23:36:40;26.52;;;16.25;;
23988;SDS011;74667;52.136;5.592;2023-12-07T23:39:05;34.60;;;17.83;;
23988;SDS011;74667;52.136;5.592;2023-12-07T23:41:30;26.70;;;15.50;;
23988;SDS011;74667;52.136;5.592;2023-12-07T23:43:56;28.98;;;17.17;;
23988;SDS011;74667;52.136;5.592;2023-12-07T23:46:21;30.67;;;17.73;;
23988;SDS011;74667;52.136;5.592;2023-12-07T23:48:47;29.10;;;17.88;;
23988;SDS011;74667;52.136;5.592;2023-12-07T23:51:14;29.98;;;16.77;;
23988;SDS011;74667;52.136;5.592;2023-12-07T23:53:39;30.38;;;17.70;;
23988;SDS011;74667;52.136;5.592;2023-12-07T23:56:04;31.13;;;18.00;;
23988;SDS011;74667;52.136;5.592;2023-12-07T23:58:29;30.92;;;17.17;;
